Time;durP1;ratioP1;P1;durP2;ratioP2;P2;SDS_P1;SDS_P2;PMS_P1;PMS_P2;Temp;Humidity;BMP_temperature;BMP_pressure;BME280_temperature;BME280_humidity;BME280_pressure;Samples;Min_cycle;Max_cycle;Signal;HPM_P1;HPM_P2
2024/04/07 00:00:22;;;;;;;;;8.50;8.25;;;;;;;;5091400;28;8846;-68
2024/04/07 00:02:48;;;;;;;;;7.00;6.50;;;;;;;;5091368;28;8898;-68
2024/04/07 00:05:13;;;;;;;;;7.00;7.00;;;;;;;;5090968;28;11412;-69
2024/04/07 00:07:38;;;;;;;;;6.50;5.75;;;;;;;;5091148;28;8795;-69
2024/04/07 00:10:04;;;;;;;;;7.25;7.25;;;;;;;;5091231;28;8787;-69
2024/04/07 00:12:30;;;;;;;;;6.00;6.00;;;;;;;;5091119;28;8776;-68
2024/04/07 00:14:55;;;;;;;;;8.25;7.00;;;;;;;;5091042;28;8776;-68
2024/04/07 00:17:20;;;;;;;;;6.75;6.00;;;;;;;;5091383;28;8772;-68
2024/04/07 00:19:46;;;;;;;;;5.50;5.50;;;;;;;;5090813;28;8846;-69
2024/04/07 00:22:12;;;;;;;;;7.25;6.00;;;;;;;;5089663;28;8783;-68
2024/04/07 00:24:37;;;;;;;;;4.00;4.00;;;;;;;;5090526;28;11444;-69
2024/04/07 00:27:02;;;;;;;;;6.00;5.00;;;;;;;;5090834;28;8794;-69
2024/04/07 00:29:28;;;;;;;;;5.50;5.50;;;;;;;;5090820;28;8845;-69
2024/04/07 00:31:53;;;;;;;;;5.00;4.00;;;;;;;;5090782;28;8775;-68
2024/04/07 00:34:18;;;;;;;;;4.50;4.50;;;;;;;;5090687;28;8787;-69
2024/04/07 00:36:43;;;;;;;;;7.00;5.00;;;;;;;;5090899;28;8760;-69
2024/04/07 00:39:09;;;;;;;;;6.75;4.50;;;;;;;;5090668;28;8811;-69
2024/04/07 00:41:34;;;;;;;;;7.25;6.00;;;;;;;;5090726;28;8764;-69
2024/04/07 00:43:59;;;;;;;;;6.75;6.00;;;;;;;;5090608;28;9502;-69
2024/04/07 00:46:25;;;;;;;;;7.50;6.00;;;;;;;;5090776;28;8811;-69
2024/04/07 00:48:50;;;;;;;;;6.00;6.00;;;;;;;;5090202;28;8996;-69
2024/04/07 00:51:16;;;;;;;;;4.25;3.50;;;;;;;;5090939;28;8796;-69
2024/04/07 00:53:41;;;;;;;;;7.00;4.25;;;;;;;;5090603;28;8882;-68
2024/04/07 00:56:07;;;;;;;;;7.25;6.00;;;;;;;;5090587;28;8784;-69
2024/04/07 00:58:32;;;;;;;;;5.75;4.25;;;;;;;;5090631;28;8799;-69
2024/04/07 01:00:57;;;;;;;;;5.75;5.75;;;;;;;;5090565;28;8816;-69
2024/04/07 01:03:23;;;;;;;;;5.00;5.00;;;;;;;;5090423;28;8764;-69
2024/04/07 01:05:49;;;;;;;;;5.50;5.50;;;;;;;;5090515;28;8760;-69
2024/04/07 01:08:15;;;;;;;;;6.50;6.00;;;;;;;;5089347;28;9501;-69
2024/04/07 01:10:40;;;;;;;;;6.00;5.00;;;;;;;;5090593;28;8780;-68
2024/04/07 01:13:06;;;;;;;;;7.00;6.25;;;;;;;;5090587;28;11404;-69
2024/04/07 01:15:33;;;;;;;;;4.50;4.50;;;;;;;;5090817;28;8831;-69
2024/04/07 01:18:01;;;;;;;;;6.00;6.00;;;;;;;;5089108;28;8871;-69
2024/04/07 01:20:28;;;;;;;;;5.75;5.25;;;;;;;;5089112;28;11500;-68
2024/04/07 01:22:57;;;;;;;;;6.00;5.25;;;;;;;;5090437;28;11468;-69
2024/04/07 01:25:22;;;;;;;;;5.00;5.00;;;;;;;;5090419;28;11395;-69
2024/04/07 01:28:01;;;;;;;;;6.00;6.00;;;;;;;;5090241;28;11388;-69
2024/04/07 01:30:27;;;;;;;;;5.00;5.00;;;;;;;;5090298;28;8804;-69
2024/04/07 01:32:52;;;;;;;;;5.50;5.50;;;;;;;;5089060;28;11384;-69
2024/04/07 01:35:18;;;;;;;;;4.00;3.00;;;;;;;;5090135;28;8792;-69
2024/04/07 01:37:43;;;;;;;;;5.00;5.00;;;;;;;;5093896;28;8775;-69
2024/04/07 01:40:09;;;;;;;;;8.00;5.00;;;;;;;;5093811;28;8892;-69
2024/04/07 01:42:38;;;;;;;;;3.00;2.00;;;;;;;;5094033;28;8852;-69
2024/04/07 01:45:04;;;;;;;;;3.00;3.00;;;;;;;;5093928;28;8923;-69
2024/04/07 01:47:29;;;;;;;;;3.00;3.00;;;;;;;;5094094;28;11400;-69
2024/04/07 01:49:55;;;;;;;;;6.50;5.25;;;;;;;;5093638;28;11452;-69
2024/04/07 01:52:21;;;;;;;;;6.00;5.00;;;;;;;;5093819;28;8804;-69
2024/04/07 01:54:46;;;;;;;;;5.00;5.00;;;;;;;;5093669;28;11398;-69
2024/04/07 01:57:11;;;;;;;;;4.50;4.50;;;;;;;;5093729;28;9521;-68
2024/04/07 01:59:37;;;;;;;;;6.50;5.25;;;;;;;;5093551;28;8930;-69
2024/04/07 02:02:02;;;;;;;;;5.50;5.00;;;;;;;;5093845;28;8768;-69
2024/04/07 02:04:28;;;;;;;;;6.00;5.00;;;;;;;;5093814;28;8784;-69
2024/04/07 02:06:54;;;;;;;;;5.25;5.00;;;;;;;;5093517;28;8795;-69
2024/04/07 02:09:20;;;;;;;;;4.50;3.00;;;;;;;;5093481;28;11452;-68
2024/04/07 02:11:45;;;;;;;;;6.75;5.25;;;;;;;;5093684;28;8802;-68
2024/04/07 02:14:11;;;;;;;;;5.75;4.50;;;;;;;;5093220;28;11436;-69
2024/04/07 02:16:36;;;;;;;;;3.00;3.00;;;;;;;;5093628;28;8784;-69
2024/04/07 02:19:01;;;;;;;;;5.00;3.00;;;;;;;;5091997;28;8836;-68
2024/04/07 02:21:27;;;;;;;;;5.00;5.00;;;;;;;;5093267;28;8776;-69
2024/04/07 02:23:52;;;;;;;;;5.00;3.50;;;;;;;;5093271;28;8784;-69
2024/04/07 02:26:18;;;;;;;;;6.00;4.00;;;;;;;;5093102;28;8777;-69
2024/04/07 02:28:43;;;;;;;;;8.00;3.50;;;;;;;;5092943;28;8772;-69
2024/04/07 02:31:08;;;;;;;;;3.00;3.00;;;;;;;;5093148;28;8857;-69
2024/04/07 02:33:34;;;;;;;;;3.50;2.00;;;;;;;;5093003;28;8772;-69
2024/04/07 02:35:59;;;;;;;;;3.00;3.00;;;;;;;;5092952;28;8877;-69
2024/04/07 02:38:24;;;;;;;;;4.50;4.50;;;;;;;;5092962;28;8772;-69
2024/04/07 02:40:50;;;;;;;;;5.00;5.00;;;;;;;;5092849;28;8808;-69
2024/04/07 02:43:15;;;;;;;;;5.25;5.00;;;;;;;;5091507;28;8803;-69
2024/04/07 02:48:24;;;;;;;;;3.50;3.00;;;;;;;;5092875;28;8787;-69
2024/04/07 02:50:49;;;;;;;;;5.50;4.00;;;;;;;;5092592;28;11465;-69
2024/04/07 02:53:14;;;;;;;;;5.00;5.00;;;;;;;;5092622;28;8779;-69
2024/04/07 02:55:39;;;;;;;;;5.50;3.50;;;;;;;;5092662;28;8812;-70
2024/04/07 02:58:05;;;;;;;;;5.00;5.00;;;;;;;;5092474;28;8799;-69
2024/04/07 03:00:31;;;;;;;;;6.00;5.00;;;;;;;;5091153;28;8823;-69
2024/04/07 03:02:56;;;;;;;;;3.00;3.00;;;;;;;;5092551;28;8830;-69
2024/04/07 03:05:21;;;;;;;;;5.50;2.25;;;;;;;;5092413;28;8802;-69
2024/04/07 03:07:49;;;;;;;;;3.00;3.00;;;;;;;;5092506;28;8772;-69
2024/04/07 03:10:16;;;;;;;;;6.25;5.50;;;;;;;;5092358;28;8833;-69
2024/04/07 03:12:41;;;;;;;;;8.00;5.00;;;;;;;;5092156;28;11418;-69
2024/04/07 03:15:07;;;;;;;;;3.00;3.00;;;;;;;;5092376;28;12302;-70
2024/04/07 03:17:32;;;;;;;;;5.50;3.50;;;;;;;;5092785;28;8823;-69
2024/04/07 03:19:58;;;;;;;;;4.50;4.50;;;;;;;;5090878;28;8855;-69
2024/04/07 03:22:23;;;;;;;;;2.00;2.00;;;;;;;;5090755;28;8800;-71
2024/04/07 03:24:49;;;;;;;;;3.00;3.00;;;;;;;;5091966;28;8780;-69
2024/04/07 03:27:14;;;;;;;;;3.50;2.25;;;;;;;;5091762;28;8780;-69
2024/04/07 03:29:40;;;;;;;;;3.00;3.00;;;;;;;;5091897;28;8792;-69
2024/04/07 03:32:05;;;;;;;;;2.50;2.25;;;;;;;;5091936;28;8788;-69
2024/04/07 03:34:31;;;;;;;;;6.00;2.75;;;;;;;;5090237;28;8824;-68
2024/04/07 03:36:56;;;;;;;;;3.00;3.00;;;;;;;;5091711;28;8794;-68
2024/04/07 03:39:21;;;;;;;;;5.00;5.00;;;;;;;;5090345;28;8836;-69
2024/04/07 03:41:46;;;;;;;;;3.00;3.00;;;;;;;;5091560;28;8907;-69
2024/04/07 03:44:12;;;;;;;;;3.50;3.50;;;;;;;;5091584;28;8788;-69
2024/04/07 03:46:37;;;;;;;;;5.00;4.00;;;;;;;;5091566;28;8800;-69
2024/04/07 03:49:02;;;;;;;;;3.00;3.00;;;;;;;;5091546;28;8807;-69
2024/04/07 03:51:28;;;;;;;;;4.50;4.50;;;;;;;;5091435;28;8807;-69
2024/04/07 03:53:53;;;;;;;;;5.75;5.00;;;;;;;;5091485;28;8792;-69
2024/04/07 03:56:18;;;;;;;;;5.00;5.00;;;;;;;;5091285;28;8790;-69
2024/04/07 03:58:44;;;;;;;;;5.00;5.00;;;;;;;;5091073;28;8796;-69
2024/04/07 04:01:09;;;;;;;;;4.50;4.50;;;;;;;;5091352;28;8780;-69
2024/04/07 04:03:34;;;;;;;;;3.00;3.00;;;;;;;;5090933;28;8816;-69
2024/04/07 04:05:59;;;;;;;;;3.00;3.00;;;;;;;;5091244;28;8772;-69
2024/04/07 04:08:25;;;;;;;;;4.50;3.00;;;;;;;;5091011;28;8802;-69
2024/04/07 04:10:50;;;;;;;;;3.00;3.00;;;;;;;;5090775;28;8920;-69
2024/04/07 04:13:16;;;;;;;;;3.00;3.00;;;;;;;;5091364;28;8943;-68
2024/04/07 04:15:42;;;;;;;;;5.25;3.00;;;;;;;;5091704;28;8788;-68
2024/04/07 04:18:09;;;;;;;;;3.75;3.00;;;;;;;;5090021;28;11499;-67
2024/04/07 04:20:43;;;;;;;;;3.50;3.50;;;;;;;;5089683;28;8923;-68
2024/04/07 04:23:09;;;;;;;;;6.00;4.00;;;;;;;;5090981;28;11433;-68
2024/04/07 04:25:34;;;;;;;;;7.00;6.25;;;;;;;;5089340;28;11451;-67
2024/04/07 04:28:00;;;;;;;;;5.50;3.50;;;;;;;;5090904;28;8795;-68
2024/04/07 04:30:25;;;;;;;;;5.50;5.50;;;;;;;;5090915;28;8804;-67
2024/04/07 04:32:53;;;;;;;;;5.00;5.00;;;;;;;;5090837;28;8780;-67
2024/04/07 04:35:18;;;;;;;;;6.75;5.75;;;;;;;;5090758;28;8859;-68
2024/04/07 04:37:43;;;;;;;;;6.00;5.00;;;;;;;;5090640;28;11415;-67
2024/04/07 04:40:11;;;;;;;;;5.00;4.50;;;;;;;;5090354;28;8839;-73
2024/04/07 04:42:37;;;;;;;;;2.75;2.00;;;;;;;;5090818;28;8887;-69
2024/04/07 04:45:03;;;;;;;;;2.00;2.00;;;;;;;;5090626;28;12189;-73
2024/04/07 04:47:31;;;;;;;;;5.50;5.50;;;;;;;;5090509;28;11565;-73
2024/04/07 04:49:56;;;;;;;;;4.50;2.50;;;;;;;;5090728;28;8815;-76
2024/04/07 04:52:24;;;;;;;;;2.00;2.00;;;;;;;;5090555;28;11422;-76
2024/04/07 04:54:50;;;;;;;;;3.75;3.50;;;;;;;;5090355;28;8792;-66
2024/04/07 04:57:15;;;;;;;;;5.75;5.00;;;;;;;;5090577;28;11462;-66
2024/04/07 04:59:40;;;;;;;;;5.00;5.00;;;;;;;;5090577;28;8808;-67
2024/04/07 05:02:05;;;;;;;;;4.50;4.50;;;;;;;;5090527;28;8822;-69
2024/04/07 05:04:31;;;;;;;;;5.50;5.00;;;;;;;;5090268;28;8792;-67
2024/04/07 05:06:56;;;;;;;;;5.00;5.00;;;;;;;;5090679;28;8799;-67
2024/04/07 05:09:22;;;;;;;;;5.25;3.00;;;;;;;;5090111;28;8796;-68
2024/04/07 05:11:47;;;;;;;;;5.50;5.50;;;;;;;;5092847;28;8791;-68
2024/04/07 05:14:12;;;;;;;;;3.50;3.50;;;;;;;;5094571;28;8869;-68
2024/04/07 05:16:38;;;;;;;;;4.00;4.00;;;;;;;;5094935;28;8812;-70
2024/04/07 05:19:06;;;;;;;;;4.25;2.75;;;;;;;;5094464;28;8820;-70
2024/04/07 05:21:32;;;;;;;;;3.50;3.50;;;;;;;;5094319;28;8809;-69
2024/04/07 05:23:58;;;;;;;;;2.50;2.25;;;;;;;;5094146;28;11447;-70
2024/04/07 05:26:23;;;;;;;;;2.50;2.50;;;;;;;;5094329;28;9551;-70
2024/04/07 05:28:48;;;;;;;;;4.00;4.00;;;;;;;;5094262;28;8810;-70
2024/04/07 05:31:14;;;;;;;;;5.25;3.00;;;;;;;;5092994;28;9556;-70
2024/04/07 05:33:40;;;;;;;;;6.00;5.00;;;;;;;;5094274;28;8776;-70
2024/04/07 05:36:05;;;;;;;;;7.00;4.50;;;;;;;;5094193;28;8768;-70
2024/04/07 05:38:31;;;;;;;;;3.00;3.00;;;;;;;;5092593;28;11441;-70
2024/04/07 05:40:57;;;;;;;;;4.00;4.00;;;;;;;;5093978;28;8819;-70
2024/04/07 05:43:22;;;;;;;;;3.50;2.75;;;;;;;;5094059;28;8829;-69
2024/04/07 05:45:48;;;;;;;;;6.00;3.00;;;;;;;;5093904;28;11565;-70
2024/04/07 05:48:13;;;;;;;;;5.25;5.25;;;;;;;;5093636;28;8784;-71
2024/04/07 05:50:38;;;;;;;;;2.00;2.00;;;;;;;;5086598;28;8820;-70
2024/04/07 05:53:04;;;;;;;;;2.75;2.75;;;;;;;;5073160;28;8782;-71
2024/04/07 05:55:29;;;;;;;;;2.50;2.00;;;;;;;;5072257;28;8806;-70
2024/04/07 05:57:54;;;;;;;;;2.00;2.00;;;;;;;;5092162;28;8788;-70
2024/04/07 06:00:20;;;;;;;;;6.00;6.00;;;;;;;;5090860;28;8828;-72
2024/04/07 06:02:45;;;;;;;;;5.75;5.75;;;;;;;;5090896;28;8800;-69
2024/04/07 06:05:10;;;;;;;;;5.00;5.00;;;;;;;;5093655;28;8814;-69
2024/04/07 06:07:35;;;;;;;;;6.25;5.00;;;;;;;;5092073;28;8914;-72
2024/04/07 06:10:01;;;;;;;;;6.75;5.75;;;;;;;;5093443;28;9640;-69
2024/04/07 06:12:26;;;;;;;;;3.50;3.50;;;;;;;;5093439;28;8780;-70
2024/04/07 06:14:52;;;;;;;;;4.50;4.00;;;;;;;;5093353;28;8772;-69
2024/04/07 06:17:17;;;;;;;;;5.00;5.00;;;;;;;;5092386;28;8804;-69
2024/04/07 06:19:45;;;;;;;;;5.75;5.00;;;;;;;;5093311;28;8803;-69
2024/04/07 06:22:10;;;;;;;;;3.00;3.00;;;;;;;;5090634;28;8888;-69
2024/04/07 06:24:35;;;;;;;;;5.00;5.00;;;;;;;;5092699;28;12164;-69
2024/04/07 06:27:01;;;;;;;;;6.00;3.50;;;;;;;;5092862;28;8764;-68
2024/04/07 06:29:26;;;;;;;;;4.50;4.00;;;;;;;;5093124;28;9510;-68
2024/04/07 06:31:51;;;;;;;;;3.50;3.50;;;;;;;;5093070;28;8784;-69
2024/04/07 06:34:17;;;;;;;;;10.00;5.75;;;;;;;;5093022;28;9599;-68
2024/04/07 06:36:42;;;;;;;;;6.00;5.50;;;;;;;;5092864;28;8795;-69
2024/04/07 06:39:07;;;;;;;;;9.00;9.00;;;;;;;;5092387;28;8814;-69
2024/04/07 06:41:34;;;;;;;;;12.50;7.00;;;;;;;;5090717;28;8872;-69
2024/04/07 06:44:00;;;;;;;;;9.00;6.00;;;;;;;;5092089;28;9621;-68
2024/04/07 06:46:25;;;;;;;;;9.50;6.25;;;;;;;;5092810;28;11418;-69
2024/04/07 06:48:50;;;;;;;;;6.50;6.50;;;;;;;;5091087;28;8810;-69
2024/04/07 06:51:16;;;;;;;;;5.50;5.50;;;;;;;;5093137;28;8818;-68
2024/04/07 06:53:42;;;;;;;;;5.75;5.00;;;;;;;;5092835;28;8795;-68
2024/04/07 06:56:07;;;;;;;;;5.00;4.00;;;;;;;;5092825;28;8785;-69
2024/04/07 06:58:32;;;;;;;;;7.00;7.00;;;;;;;;5092626;28;8910;-69
2024/04/07 07:00:59;;;;;;;;;9.25;6.00;;;;;;;;5091807;28;8950;-68
2024/04/07 07:03:25;;;;;;;;;8.00;7.00;;;;;;;;5083751;28;8853;-69
2024/04/07 07:05:50;;;;;;;;;7.50;6.00;;;;;;;;5072231;28;11435;-70
2024/04/07 07:08:15;;;;;;;;;88.00;69.67;;;;;;;;5080144;28;8938;-73
2024/04/07 07:10:52;;;;;;;;;28.75;27.75;;;;;;;;5092328;28;8792;-74
2024/04/07 07:13:17;;;;;;;;;12.50;11.75;;;;;;;;5092352;28;8772;-77
2024/04/07 07:15:43;;;;;;;;;10.25;8.00;;;;;;;;5090812;28;11547;-75
2024/04/07 07:18:08;;;;;;;;;8.00;8.00;;;;;;;;5092274;28;8788;-74
2024/04/07 07:20:33;;;;;;;;;7.25;6.25;;;;;;;;5089785;28;8905;-74
2024/04/07 07:22:58;;;;;;;;;8.25;6.50;;;;;;;;5082802;28;8770;-74
2024/04/07 07:25:24;;;;;;;;;7.00;7.00;;;;;;;;5089067;28;8796;-74
2024/04/07 07:27:49;;;;;;;;;9.50;5.75;;;;;;;;5090127;28;8800;-74
2024/04/07 07:30:14;;;;;;;;;11.00;8.00;;;;;;;;5091896;28;8818;-74
2024/04/07 07:32:39;;;;;;;;;6.50;6.50;;;;;;;;5091336;28;8827;-74
2024/04/07 07:35:05;;;;;;;;;8.50;8.50;;;;;;;;5090414;28;8803;-75
2024/04/07 07:37:30;;;;;;;;;8.75;5.75;;;;;;;;5091256;28;8772;-72
2024/04/07 07:39:55;;;;;;;;;10.50;7.75;;;;;;;;5090450;28;8858;-70
2024/04/07 07:42:21;;;;;;;;;8.50;7.25;;;;;;;;5091642;28;8764;-73
2024/04/07 07:44:46;;;;;;;;;5.75;3.50;;;;;;;;5091550;28;9579;-73
2024/04/07 07:47:11;;;;;;;;;12.50;9.25;;;;;;;;5090453;28;8823;-76
2024/04/07 07:49:37;;;;;;;;;7.75;6.75;;;;;;;;5090192;28;8803;-75
2024/04/07 07:52:02;;;;;;;;;6.50;6.50;;;;;;;;5090840;28;8845;-75
2024/04/07 07:54:27;;;;;;;;;10.50;8.00;;;;;;;;5090582;28;8792;-75
2024/04/07 07:56:52;;;;;;;;;26.00;21.00;;;;;;;;5089246;28;8791;-77
2024/04/07 07:59:18;;;;;;;;;11.00;11.00;;;;;;;;5089967;28;8840;-76
2024/04/07 08:01:43;;;;;;;;;12.50;7.00;;;;;;;;5090583;28;8768;-76
2024/04/07 08:04:09;;;;;;;;;15.50;11.25;;;;;;;;5090469;28;8939;-82
2024/04/07 08:06:35;;;;;;;;;7.50;7.25;;;;;;;;5090366;28;8807;-84
2024/04/07 08:09:00;;;;;;;;;7.50;7.50;;;;;;;;5088861;28;9483;-77
2024/04/07 08:11:25;;;;;;;;;8.00;7.25;;;;;;;;5090249;28;11396;-76
2024/04/07 08:13:51;;;;;;;;;7.75;7.00;;;;;;;;5089007;28;8884;-79
2024/04/07 08:16:16;;;;;;;;;7.50;7.50;;;;;;;;5089301;28;8931;-79
2024/04/07 08:18:41;;;;;;;;;7.75;7.75;;;;;;;;5088770;28;8800;-77
2024/04/07 08:21:07;;;;;;;;;8.25;6.75;;;;;;;;5090693;28;8799;-78
2024/04/07 08:23:32;;;;;;;;;8.00;7.25;;;;;;;;5089549;28;8815;-78
2024/04/07 08:25:58;;;;;;;;;7.75;7.75;;;;;;;;5090948;28;8780;-80
2024/04/07 08:28:24;;;;;;;;;9.00;8.00;;;;;;;;5086623;28;8788;-76
2024/04/07 08:30:49;;;;;;;;;9.50;8.00;;;;;;;;5019098;28;12609;-73
2024/04/07 08:33:14;;;;;;;;;16.00;13.50;;;;;;;;5050335;28;10822;-75
2024/04/07 08:35:39;;;;;;;;;29.25;24.75;;;;;;;;5048900;28;8828;-74
2024/04/07 08:38:05;;;;;;;;;21.25;19.75;;;;;;;;5047999;28;8815;-74
2024/04/07 08:40:30;;;;;;;;;8.50;7.00;;;;;;;;5050407;28;8886;-73
2024/04/07 08:42:56;;;;;;;;;10.25;9.00;;;;;;;;5049141;28;8800;-73
2024/04/07 08:45:22;;;;;;;;;20.25;17.75;;;;;;;;5049927;28;8805;-74
2024/04/07 08:47:49;;;;;;;;;14.00;14.00;;;;;;;;5047908;28;8812;-73
2024/04/07 08:50:14;;;;;;;;;8.33;8.33;;;;;;;;5048401;28;9767;-71
2024/04/07 08:52:40;;;;;;;;;11.67;11.67;;;;;;;;5049861;28;9357;-72
2024/04/07 08:55:06;;;;;;;;;14.67;11.00;;;;;;;;5049974;28;8781;-72
2024/04/07 08:57:31;;;;;;;;;10.33;8.67;;;;;;;;5048275;28;9060;-73
2024/04/07 08:59:58;;;;;;;;;8.33;8.33;;;;;;;;5049625;28;8829;-71
2024/04/07 09:02:24;;;;;;;;;7.50;7.50;;;;;;;;4826840;28;12365;-72
2024/04/07 09:04:49;;;;;;;;;13.00;13.00;;;;;;;;5012418;28;8854;-71
2024/04/07 09:07:14;;;;;;;;;8.67;8.67;;;;;;;;5021955;28;8850;-71
2024/04/07 09:09:40;;;;;;;;;11.00;9.00;;;;;;;;5029696;28;8808;-72
2024/04/07 09:12:07;;;;;;;;;8.00;6.33;;;;;;;;5030319;28;8864;-72
2024/04/07 09:14:34;;;;;;;;;5.00;5.00;;;;;;;;5030241;28;8916;-74
2024/04/07 09:17:04;;;;;;;;;7.75;6.50;;;;;;;;5027910;28;8962;-73
2024/04/07 09:19:30;;;;;;;;;11.25;11.00;;;;;;;;5028775;28;8827;-72
2024/04/07 09:21:55;;;;;;;;;36.67;33.00;;;;;;;;5029985;28;8791;-70
2024/04/07 09:24:20;;;;;;;;;16.67;15.00;;;;;;;;5030049;28;9058;-75
2024/04/07 09:26:45;;;;;;;;;8.67;8.00;;;;;;;;5029036;28;8808;-72
2024/04/07 09:29:11;;;;;;;;;9.00;8.67;;;;;;;;5027950;28;8852;-69
2024/04/07 09:31:36;;;;;;;;;11.00;10.00;;;;;;;;5029413;28;8809;-70
2024/04/07 09:34:01;;;;;;;;;14.00;12.00;;;;;;;;5029835;28;9572;-71
2024/04/07 09:36:27;;;;;;;;;9.67;9.00;;;;;;;;5029473;28;8892;-72
2024/04/07 09:38:52;;;;;;;;;33.00;30.33;;;;;;;;5025651;28;8834;-70
2024/04/07 09:41:19;;;;;;;;;9.67;8.33;;;;;;;;5029591;28;8825;-71
2024/04/07 09:43:46;;;;;;;;;9.50;9.50;;;;;;;;5028082;28;8829;-73
2024/04/07 09:46:15;;;;;;;;;10.00;9.00;;;;;;;;5025173;28;8814;-72
2024/04/07 09:48:41;;;;;;;;;8.00;7.00;;;;;;;;5024467;28;8836;-74
2024/04/07 09:51:10;;;;;;;;;10.00;9.00;;;;;;;;5029416;28;9571;-74
2024/04/07 09:53:57;;;;;;;;;7.25;7.25;;;;;;;;5029543;28;8830;-77
2024/04/07 09:56:28;;;;;;;;;6.00;6.00;;;;;;;;5028242;28;8806;-72
2024/04/07 09:58:53;;;;;;;;;10.25;10.00;;;;;;;;5028914;28;8813;-72
2024/04/07 10:01:21;;;;;;;;;10.67;10.67;;;;;;;;5032026;28;8949;-70
2024/04/07 10:03:48;;;;;;;;;11.25;11.25;;;;;;;;5032047;28;8805;-72
2024/04/07 10:06:13;;;;;;;;;16.00;13.00;;;;;;;;5030511;28;9570;-69
2024/04/07 10:08:38;;;;;;;;;12.33;11.33;;;;;;;;5029690;28;8914;-71
2024/04/07 10:11:04;;;;;;;;;14.00;13.67;;;;;;;;5032076;28;9216;-71
2024/04/07 10:13:32;;;;;;;;;12.00;10.00;;;;;;;;5032591;28;8788;-74
2024/04/07 10:15:58;;;;;;;;;13.25;12.25;;;;;;;;5033129;28;8834;-72
2024/04/07 10:18:27;;;;;;;;;14.25;13.00;;;;;;;;5030863;28;8799;-70
2024/04/07 10:20:53;;;;;;;;;11.25;9.75;;;;;;;;5032248;28;8839;-73
2024/04/07 10:23:19;;;;;;;;;9.00;9.00;;;;;;;;5033053;28;8804;-77
2024/04/07 10:25:48;;;;;;;;;9.00;7.00;;;;;;;;5032770;28;8800;-74
2024/04/07 10:28:13;;;;;;;;;10.50;9.00;;;;;;;;5030804;28;8780;-73
2024/04/07 10:30:49;;;;;;;;;10.67;10.67;;;;;;;;5032031;28;8821;-77
2024/04/07 10:33:14;;;;;;;;;13.00;10.75;;;;;;;;5032598;28;8832;-74
2024/04/07 10:35:52;;;;;;;;;8.00;8.00;;;;;;;;5032403;28;8778;-75
2024/04/07 10:38:17;;;;;;;;;9.25;9.25;;;;;;;;5029758;28;8809;-73
2024/04/07 10:40:43;;;;;;;;;13.33;12.00;;;;;;;;5030837;28;9613;-73
2024/04/07 10:43:09;;;;;;;;;9.00;9.00;;;;;;;;5029060;28;8844;-77
2024/04/07 10:45:34;;;;;;;;;10.00;10.00;;;;;;;;5032671;28;8830;-73
2024/04/07 10:48:00;;;;;;;;;9.33;8.33;;;;;;;;5032633;28;8780;-70
2024/04/07 10:50:25;;;;;;;;;7.33;6.33;;;;;;;;5032474;28;8815;-72
2024/04/07 10:53:02;;;;;;;;;10.00;7.00;;;;;;;;5029181;28;8832;-69
2024/04/07 10:55:29;;;;;;;;;3.00;3.00;;;;;;;;5032530;28;8802;-71
2024/04/07 10:57:54;;;;;;;;;5.50;4.00;;;;;;;;5032371;28;8828;-71
2024/04/07 11:00:20;;;;;;;;;6.33;4.33;;;;;;;;5032414;28;9550;-66
2024/04/07 11:02:45;;;;;;;;;3.67;3.67;;;;;;;;5032501;28;8802;-66
2024/04/07 11:05:12;;;;;;;;;3.67;3.67;;;;;;;;5030920;28;9866;-65
2024/04/07 11:07:37;;;;;;;;;4.25;3.50;;;;;;;;5030673;28;8811;-66
2024/04/07 11:10:04;;;;;;;;;4.33;4.33;;;;;;;;5030912;28;8816;-66
2024/04/07 11:12:29;;;;;;;;;4.00;4.00;;;;;;;;5030947;28;8803;-66
2024/04/07 11:14:54;;;;;;;;;4.00;3.00;;;;;;;;5030515;28;8819;-66
2024/04/07 11:17:20;;;;;;;;;3.00;3.00;;;;;;;;5031088;28;8807;-66
2024/04/07 11:19:48;;;;;;;;;3.00;2.00;;;;;;;;5029959;28;8838;-66
2024/04/07 11:22:13;;;;;;;;;3.25;3.25;;;;;;;;5030490;28;8807;-66
2024/04/07 11:24:39;;;;;;;;;2.67;2.00;;;;;;;;5030848;28;8836;-67
2024/04/07 11:27:05;;;;;;;;;2.00;2.00;;;;;;;;5030625;28;9440;-66
2024/04/07 11:29:31;;;;;;;;;1.00;1.00;;;;;;;;5031843;28;8810;-66
2024/04/07 11:31:57;;;;;;;;;4.25;3.00;;;;;;;;5031672;28;11428;-66
2024/04/07 11:34:24;;;;;;;;;2.00;2.00;;;;;;;;5031693;28;8892;-66
2024/04/07 11:36:49;;;;;;;;;3.50;3.00;;;;;;;;5031666;28;8800;-65
2024/04/07 11:39:18;;;;;;;;;3.00;3.00;;;;;;;;5030291;28;8815;-66
2024/04/07 11:41:44;;;;;;;;;2.25;2.25;;;;;;;;5031659;28;8787;-66
2024/04/07 11:44:09;;;;;;;;;2.75;2.75;;;;;;;;5031619;28;8784;-66
2024/04/07 11:46:35;;;;;;;;;3.00;3.00;;;;;;;;5031558;28;8791;-66
2024/04/07 11:49:00;;;;;;;;;5.00;3.00;;;;;;;;5031292;28;8811;-66
2024/04/07 11:51:26;;;;;;;;;4.00;4.00;;;;;;;;5031710;28;8814;-66
2024/04/07 11:53:51;;;;;;;;;4.00;4.00;;;;;;;;5030047;28;8796;-66
2024/04/07 11:56:17;;;;;;;;;4.00;4.00;;;;;;;;5031174;28;8791;-66
2024/04/07 11:58:43;;;;;;;;;4.00;4.00;;;;;;;;5029972;28;8812;-66
2024/04/07 12:01:08;;;;;;;;;5.00;4.33;;;;;;;;5031308;28;9161;-66
2024/04/07 12:03:33;;;;;;;;;5.00;4.67;;;;;;;;5031163;28;8773;-67
2024/04/07 12:05:59;;;;;;;;;5.00;4.67;;;;;;;;5030987;28;8791;-66
2024/04/07 12:08:24;;;;;;;;;4.00;4.00;;;;;;;;5031144;28;8830;-66
2024/04/07 12:10:50;;;;;;;;;4.33;4.33;;;;;;;;5031125;28;8884;-66
2024/04/07 12:13:15;;;;;;;;;5.00;4.00;;;;;;;;5030954;28;8788;-66
2024/04/07 12:15:41;;;;;;;;;4.00;4.00;;;;;;;;5031079;28;8808;-67
2024/04/07 12:18:06;;;;;;;;;6.00;5.00;;;;;;;;5014194;23;8972;-65
2024/04/07 12:20:31;;;;;;;;;4.00;4.00;;;;;;;;4989575;28;8922;-66
2024/04/07 12:22:56;;;;;;;;;4.67;4.67;;;;;;;;4990360;28;8799;-65
2024/04/07 12:25:23;;;;;;;;;8.00;5.67;;;;;;;;4989101;28;8937;-65
2024/04/07 12:27:48;;;;;;;;;4.33;4.33;;;;;;;;4990263;28;8813;-65
2024/04/07 12:30:13;;;;;;;;;6.00;6.00;;;;;;;;4990271;28;9713;-65
2024/04/07 12:32:38;;;;;;;;;5.33;4.00;;;;;;;;4989479;28;8940;-64
2024/04/07 12:35:04;;;;;;;;;5.00;5.00;;;;;;;;4989991;28;8937;-65
2024/04/07 12:37:29;;;;;;;;;5.67;4.33;;;;;;;;4990062;28;8884;-65
2024/04/07 12:39:54;;;;;;;;;6.00;6.00;;;;;;;;4989955;28;8987;-65
2024/04/07 12:42:20;;;;;;;;;5.00;5.00;;;;;;;;4990039;28;8898;-65
2024/04/07 12:44:45;;;;;;;;;6.33;5.00;;;;;;;;4989918;28;8842;-64
2024/04/07 12:47:12;;;;;;;;;6.00;4.33;;;;;;;;4988935;28;9530;-66
2024/04/07 12:49:37;;;;;;;;;9.00;5.00;;;;;;;;4989986;28;9000;-66
2024/04/07 12:52:02;;;;;;;;;6.00;6.00;;;;;;;;4989803;28;9034;-66
2024/04/07 12:54:27;;;;;;;;;6.00;6.00;;;;;;;;4989811;28;8799;-66
2024/04/07 12:56:54;;;;;;;;;7.00;6.00;;;;;;;;4989796;28;8791;-65
2024/04/07 12:59:19;;;;;;;;;8.00;7.33;;;;;;;;4989760;28;8787;-65
2024/04/07 13:01:44;;;;;;;;;7.33;7.00;;;;;;;;4989788;28;9121;-65
2024/04/07 13:04:10;;;;;;;;;7.67;6.33;;;;;;;;4989418;28;8827;-69
2024/04/07 13:06:35;;;;;;;;;6.33;5.33;;;;;;;;4986507;28;8904;-70
2024/04/07 13:09:00;;;;;;;;;7.00;7.00;;;;;;;;4989652;28;8799;-68
2024/04/07 13:11:25;;;;;;;;;5.67;5.67;;;;;;;;4989307;28;8825;-69
2024/04/07 13:13:53;;;;;;;;;6.67;5.33;;;;;;;;4989571;28;8917;-68
2024/04/07 13:16:19;;;;;;;;;5.67;4.00;;;;;;;;4988463;28;8811;-68
2024/04/07 13:18:44;;;;;;;;;6.00;6.00;;;;;;;;4987964;28;9222;-68
2024/04/07 13:21:10;;;;;;;;;6.00;6.00;;;;;;;;4989183;28;8852;-68
2024/04/07 13:23:35;;;;;;;;;5.00;5.00;;;;;;;;4989691;28;8799;-67
2024/04/07 13:26:00;;;;;;;;;6.67;5.00;;;;;;;;4987891;28;8956;-68
2024/04/07 13:28:26;;;;;;;;;5.33;5.00;;;;;;;;4989204;28;8811;-68
2024/04/07 13:30:51;;;;;;;;;8.00;6.33;;;;;;;;4989380;28;8815;-68
2024/04/07 13:33:16;;;;;;;;;5.67;5.00;;;;;;;;4992214;28;8787;-69
2024/04/07 13:35:43;;;;;;;;;3.00;3.00;;;;;;;;4992904;28;8786;-68
2024/04/07 13:38:08;;;;;;;;;3.33;3.33;;;;;;;;4993090;28;8807;-68
2024/04/07 13:40:34;;;;;;;;;4.67;4.00;;;;;;;;4991662;28;9073;-70
2024/04/07 13:42:59;;;;;;;;;6.00;4.33;;;;;;;;4992147;28;8904;-69
2024/04/07 13:45:25;;;;;;;;;4.00;4.00;;;;;;;;4990888;28;8810;-69
2024/04/07 13:47:50;;;;;;;;;5.00;4.33;;;;;;;;4991206;28;9588;-70
2024/04/07 13:50:16;;;;;;;;;5.00;5.00;;;;;;;;4991557;28;8815;-68
2024/04/07 13:52:41;;;;;;;;;4.33;4.00;;;;;;;;4993497;28;8807;-69
2024/04/07 13:55:07;;;;;;;;;4.00;4.00;;;;;;;;4992951;28;8818;-69
2024/04/07 13:57:32;;;;;;;;;4.67;4.00;;;;;;;;4992748;28;8814;-70
2024/04/07 13:59:58;;;;;;;;;5.00;5.00;;;;;;;;4988208;28;8997;-69
2024/04/07 14:02:23;;;;;;;;;4.67;4.67;;;;;;;;4992440;28;8799;-70
2024/04/07 14:04:48;;;;;;;;;5.00;4.00;;;;;;;;4992265;28;8791;-68
2024/04/07 14:07:16;;;;;;;;;7.00;5.00;;;;;;;;4992699;28;8803;-68
2024/04/07 14:09:42;;;;;;;;;6.00;6.00;;;;;;;;4992377;28;8845;-72
2024/04/07 14:12:07;;;;;;;;;4.33;3.00;;;;;;;;4991158;28;9153;-70
2024/04/07 14:14:33;;;;;;;;;3.67;3.67;;;;;;;;4992556;28;8820;-69
2024/04/07 14:16:58;;;;;;;;;5.00;5.00;;;;;;;;4991184;28;9040;-68
2024/04/07 14:19:23;;;;;;;;;5.67;4.33;;;;;;;;4991643;28;8865;-69
2024/04/07 14:21:50;;;;;;;;;10.67;8.33;;;;;;;;4990524;28;8899;-68
2024/04/07 14:24:15;;;;;;;;;10.67;8.00;;;;;;;;4991949;28;8787;-67
2024/04/07 14:26:40;;;;;;;;;9.00;8.00;;;;;;;;4991821;28;9059;-69
2024/04/07 14:29:06;;;;;;;;;9.00;8.00;;;;;;;;4991742;28;8892;-68
2024/04/07 14:31:31;;;;;;;;;2.33;2.33;;;;;;;;4991641;28;8908;-69
2024/04/07 14:33:57;;;;;;;;;3.33;3.00;;;;;;;;4991848;28;8779;-68
2024/04/07 14:36:22;;;;;;;;;8.00;6.67;;;;;;;;4991384;28;8880;-68
2024/04/07 14:38:47;;;;;;;;;7.67;6.00;;;;;;;;4990157;28;8945;-69
2024/04/07 14:41:13;;;;;;;;;5.00;4.00;;;;;;;;4990604;28;8869;-67
2024/04/07 14:43:38;;;;;;;;;4.33;4.00;;;;;;;;4990402;28;8799;-68
2024/04/07 14:46:06;;;;;;;;;3.00;3.00;;;;;;;;4991696;28;8904;-67